createdAt,value
2019-01-30T00:00:50.704Z,10.14
2019-01-30T00:01:50.603Z,10.14
2019-01-30T00:03:44.914Z,10.25
2019-01-30T00:04:44.829Z,10.25
2019-01-30T00:06:39.075Z,10.42
2019-01-30T00:07:38.984Z,10.44
2019-01-30T00:09:33.235Z,10.41
2019-01-30T00:10:33.141Z,10.44
2019-01-30T00:12:27.421Z,10.41
2019-01-30T00:13:27.305Z,10.42
2019-01-30T00:15:21.556Z,10.42
2019-01-30T00:16:21.468Z,10.29
2019-01-30T00:18:15.730Z,10.02
2019-01-30T00:19:15.630Z,10.04
2019-01-30T00:21:09.910Z,10.01
2019-01-30T00:22:09.797Z,9.91
2019-01-30T00:24:04.057Z,10.14
2019-01-30T00:25:03.965Z,10.20
2019-01-30T00:26:58.225Z,10.27
2019-01-30T00:27:58.129Z,10.22
2019-01-30T00:29:52.399Z,10.25
2019-01-30T00:30:52.297Z,10.15
2019-01-30T00:32:46.618Z,10.15
2019-01-30T00:33:46.535Z,10.22
2019-01-30T00:35:40.756Z,10.33
2019-01-30T00:36:40.651Z,10.34
2019-01-30T00:38:34.942Z,10.40
2019-01-30T00:39:34.817Z,10.40
2019-01-30T00:41:29.077Z,10.36
2019-01-30T00:42:29.024Z,10.41
2019-01-30T00:44:23.299Z,10.40
2019-01-30T00:45:23.165Z,10.41
2019-01-30T00:47:17.483Z,10.20
2019-01-30T00:48:17.372Z,10.11
2019-01-30T00:50:11.678Z,10.09
2019-01-30T00:51:11.581Z,9.97
2019-01-30T00:53:05.944Z,9.96
2019-01-30T00:54:05.743Z,9.97
2019-01-30T00:56:00.003Z,10.04
2019-01-30T00:56:59.907Z,9.91
2019-01-30T00:58:54.257Z,10.11
2019-01-30T00:59:54.138Z,10.17
2019-01-30T01:01:48.406Z,9.97
2019-01-30T01:02:48.294Z,10.07
2019-01-30T01:04:42.554Z,10.09
2019-01-30T01:05:42.471Z,10.14
2019-01-30T01:07:36.743Z,10.27
2019-01-30T01:08:36.646Z,10.22
2019-01-30T01:10:30.959Z,10.15
2019-01-30T01:11:30.865Z,10.12
2019-01-30T01:13:25.162Z,10.11
2019-01-30T01:14:25.063Z,10.11
2019-01-30T01:16:19.345Z,10.01
2019-01-30T01:17:19.243Z,9.93
2019-01-30T01:19:13.507Z,9.99
2019-01-30T01:20:13.418Z,10.04
2019-01-30T01:22:08.531Z,10.29
2019-01-30T01:23:08.432Z,10.27
2019-01-30T01:25:02.698Z,10.25
2019-01-30T01:26:02.592Z,10.25
2019-01-30T01:27:56.853Z,10.08
2019-01-30T01:28:56.764Z,10.15
2019-01-30T01:30:51.031Z,10.02
2019-01-30T01:31:50.940Z,10.08
2019-01-30T01:33:46.092Z,10.14
2019-01-30T01:34:45.998Z,10.09
2019-01-30T01:36:40.358Z,10.02
2019-01-30T01:37:40.256Z,10.05
2019-01-30T01:39:34.533Z,10.11
2019-01-30T01:40:34.438Z,10.18
2019-01-30T01:42:28.709Z,10.17
2019-01-30T01:43:28.604Z,10.12
2019-01-30T01:45:22.907Z,9.97
2019-01-30T01:46:22.815Z,10.02
2019-01-30T01:48:18.040Z,10.01
2019-01-30T01:49:17.947Z,9.99
2019-01-30T01:51:12.214Z,9.94
2019-01-30T01:52:12.109Z,9.93
2019-01-30T01:54:07.310Z,10.02
2019-01-30T01:55:07.207Z,10.02
2019-01-30T01:57:01.483Z,9.93
2019-01-30T01:58:01.381Z,9.97
2019-01-30T01:59:56.695Z,9.89
2019-01-30T02:00:56.608Z,9.89
2019-01-30T02:02:50.871Z,9.87
2019-01-30T02:03:50.768Z,9.76
2019-01-30T02:05:45.103Z,9.76
2019-01-30T02:06:45.007Z,9.74
2019-01-30T02:08:39.333Z,9.81
2019-01-30T02:09:39.171Z,9.83
2019-01-30T02:11:33.472Z,9.94
2019-01-30T02:12:33.383Z,9.90
2019-01-30T02:14:27.659Z,10.11
2019-01-30T02:15:27.574Z,10.01
2019-01-30T02:17:21.823Z,10.17
2019-01-30T02:18:21.743Z,10.14
2019-01-30T02:20:16.833Z,10.04
2019-01-30T02:21:16.724Z,9.87
2019-01-30T02:23:11.127Z,9.72
2019-01-30T02:24:11.032Z,9.61
2019-01-30T02:26:06.840Z,9.43
2019-01-30T02:27:06.750Z,9.48
2019-01-30T02:29:01.273Z,9.50
2019-01-30T02:30:01.182Z,9.48
2019-01-30T02:31:56.567Z,9.46
2019-01-30T02:32:56.209Z,9.64
2019-01-30T02:34:50.468Z,9.60
2019-01-30T02:35:50.363Z,9.69
2019-01-30T02:37:44.710Z,9.86
2019-01-30T02:38:44.599Z,9.90
2019-01-30T02:40:39.751Z,10.01
2019-01-30T02:41:39.666Z,10.02
2019-01-30T02:43:33.952Z,10.12
2019-01-30T02:44:33.850Z,10.11
2019-01-30T02:46:28.123Z,10.11
2019-01-30T02:47:28.006Z,10.15
2019-01-30T02:49:22.263Z,10.01
2019-01-30T02:50:22.166Z,10.04
2019-01-30T02:52:16.427Z,9.97
2019-01-30T02:53:16.336Z,10.01
2019-01-30T02:55:10.607Z,9.99
2019-01-30T02:56:10.502Z,10.04
2019-01-30T02:58:04.737Z,10.01
2019-01-30T02:59:04.652Z,9.99
2019-01-30T03:00:59.612Z,10.14
2019-01-30T03:01:58.395Z,10.11
2019-01-30T03:03:53.583Z,10.18
2019-01-30T03:04:53.481Z,10.09
2019-01-30T03:06:47.819Z,10.12
2019-01-30T03:07:47.704Z,10.04
2019-01-30T03:09:41.949Z,10.07
2019-01-30T03:10:41.874Z,9.90
2019-01-30T03:12:36.136Z,9.84
2019-01-30T03:13:36.019Z,9.83
2019-01-30T03:15:31.872Z,9.57
2019-01-30T03:16:31.775Z,9.42
2019-01-30T03:18:26.078Z,9.54
2019-01-30T03:19:25.947Z,9.60
2019-01-30T03:21:20.192Z,9.75
2019-01-30T03:22:20.111Z,9.86
2019-01-30T03:24:14.406Z,9.96
2019-01-30T03:25:14.293Z,9.93
2019-01-30T03:27:08.603Z,10.11
2019-01-30T03:28:08.528Z,10.09
2019-01-30T03:30:02.809Z,10.09
2019-01-30T03:31:16.983Z,10.14
2019-01-30T03:32:56.974Z,10.15
2019-01-30T03:33:56.867Z,10.11
2019-01-30T03:35:51.103Z,10.23
2019-01-30T03:36:51.031Z,10.18
2019-01-30T03:38:45.280Z,9.90
2019-01-30T03:39:45.176Z,9.87
2019-01-30T03:41:39.499Z,9.90
2019-01-30T03:42:39.393Z,9.90
2019-01-30T03:44:33.665Z,9.81
2019-01-30T03:45:33.577Z,9.87
2019-01-30T03:47:27.857Z,9.99
2019-01-30T03:48:27.751Z,10.02
2019-01-30T03:50:22.029Z,10.12
2019-01-30T03:51:21.929Z,10.17
2019-01-30T03:53:16.174Z,10.23
2019-01-30T03:54:16.076Z,10.25
2019-01-30T03:56:10.417Z,10.23
2019-01-30T03:57:10.325Z,9.99
2019-01-30T03:59:04.655Z,10.01
2019-01-30T04:00:04.551Z,9.81
2019-01-30T04:01:58.848Z,9.81
2019-01-30T04:02:58.742Z,9.68
2019-01-30T04:04:52.992Z,9.50
2019-01-30T04:05:52.917Z,9.47
2019-01-30T04:07:48.086Z,9.50
2019-01-30T04:08:47.997Z,9.58
2019-01-30T04:10:42.248Z,9.78
2019-01-30T04:11:42.153Z,9.86
2019-01-30T04:13:37.245Z,9.81
2019-01-30T04:14:37.135Z,9.74
2019-01-30T04:16:31.414Z,9.86
2019-01-30T04:17:31.309Z,9.90
2019-01-30T04:19:25.664Z,9.97
2019-01-30T04:20:25.560Z,10.07
2019-01-30T04:22:19.831Z,10.22
2019-01-30T04:23:19.735Z,10.12
2019-01-30T04:25:14.071Z,10.25
2019-01-30T04:26:13.987Z,10.05
2019-01-30T04:28:08.281Z,10.01
2019-01-30T04:29:08.174Z,10.01
2019-01-30T04:31:02.460Z,9.93
2019-01-30T04:32:02.351Z,9.87
2019-01-30T04:33:56.597Z,9.91
2019-01-30T04:34:56.509Z,9.96
2019-01-30T04:36:50.758Z,9.69
2019-01-30T04:37:50.672Z,9.68
2019-01-30T04:39:44.928Z,9.83
2019-01-30T04:40:44.814Z,9.75
2019-01-30T04:42:39.068Z,9.89
2019-01-30T04:43:38.972Z,9.87
2019-01-30T04:45:33.254Z,10.01
2019-01-30T04:46:33.162Z,10.05
2019-01-30T04:48:27.415Z,10.07
2019-01-30T04:49:27.325Z,10.17
2019-01-30T04:51:21.583Z,10.12
2019-01-30T04:52:21.481Z,10.11
2019-01-30T04:54:16.601Z,10.15
2019-01-30T04:55:16.498Z,10.05
2019-01-30T04:57:11.671Z,9.83
2019-01-30T04:58:11.586Z,9.78
2019-01-30T05:00:05.907Z,9.74
2019-01-30T05:01:05.805Z,9.68
2019-01-30T05:03:00.073Z,9.71
2019-01-30T05:04:00.005Z,9.66
2019-01-30T05:05:54.243Z,9.60
2019-01-30T05:06:54.144Z,9.61
2019-01-30T05:08:48.493Z,9.65
2019-01-30T05:09:48.435Z,9.75
2019-01-30T05:11:42.665Z,9.81
2019-01-30T05:12:42.567Z,9.89
2019-01-30T05:14:36.831Z,9.90
2019-01-30T05:15:36.727Z,9.87
2019-01-30T05:17:31.007Z,9.89
2019-01-30T05:18:30.908Z,10.05
2019-01-30T05:20:25.199Z,9.96
2019-01-30T05:21:25.101Z,9.96
2019-01-30T05:23:20.210Z,10.12
2019-01-30T05:24:20.118Z,10.12
2019-01-30T05:26:14.510Z,10.11
2019-01-30T05:27:14.405Z,10.08
2019-01-30T05:29:08.658Z,10.12
2019-01-30T05:30:08.566Z,10.22
2019-01-30T05:32:03.678Z,10.22
2019-01-30T05:33:03.577Z,10.20
2019-01-30T05:34:57.817Z,10.15
2019-01-30T05:35:57.738Z,10.17
2019-01-30T05:37:52.049Z,10.22
2019-01-30T05:38:51.917Z,10.29
2019-01-30T05:40:46.174Z,10.40
2019-01-30T05:41:46.091Z,10.36
2019-01-30T05:43:42.542Z,10.40
2019-01-30T05:44:40.390Z,10.55
2019-01-30T05:46:34.657Z,10.41
2019-01-30T05:47:34.559Z,10.33
2019-01-30T05:49:29.210Z,10.25
2019-01-30T05:50:28.724Z,10.22
2019-01-30T05:52:22.951Z,10.23
2019-01-30T05:53:22.867Z,10.27
2019-01-30T05:55:17.296Z,10.34
2019-01-30T05:56:20.087Z,10.40
2019-01-30T05:58:11.542Z,10.44
2019-01-30T05:59:11.449Z,10.47
2019-01-30T06:01:05.713Z,10.38
2019-01-30T06:02:11.826Z,10.38
2019-01-30T06:03:59.892Z,10.40
2019-01-30T06:04:59.775Z,10.41
2019-01-30T06:06:54.109Z,10.52
2019-01-30T06:07:54.005Z,10.56
2019-01-30T06:09:48.308Z,10.47
2019-01-30T06:10:48.222Z,10.55
2019-01-30T06:12:42.710Z,10.29
2019-01-30T06:13:42.526Z,10.11
2019-01-30T06:15:36.784Z,10.15
2019-01-30T06:16:36.683Z,10.12
2019-01-30T06:18:30.993Z,10.11
2019-01-30T06:19:30.915Z,9.97
2019-01-30T06:21:25.182Z,9.90
2019-01-30T06:22:25.097Z,9.93
2019-01-30T06:24:19.373Z,9.84
2019-01-30T06:25:19.272Z,9.89
2019-01-30T06:27:13.524Z,9.96
2019-01-30T06:28:13.424Z,10.01
2019-01-30T06:30:07.757Z,10.09
2019-01-30T06:31:07.654Z,10.14
2019-01-30T06:33:01.989Z,9.83
2019-01-30T06:34:01.902Z,9.83
2019-01-30T06:35:56.169Z,9.89
2019-01-30T06:36:56.070Z,9.90
2019-01-30T06:38:50.325Z,9.99
2019-01-30T06:39:50.227Z,9.97
2019-01-30T06:41:44.506Z,10.05
2019-01-30T06:42:44.415Z,10.15
2019-01-30T06:44:38.694Z,10.20
2019-01-30T06:45:38.587Z,10.23
2019-01-30T06:47:32.954Z,10.14
2019-01-30T06:48:32.845Z,10.11
2019-01-30T06:50:27.149Z,10.11
2019-01-30T06:51:27.058Z,10.17
2019-01-30T06:53:21.317Z,10.17
2019-01-30T06:54:21.230Z,10.07
2019-01-30T06:56:15.474Z,10.11
2019-01-30T06:57:15.426Z,10.14
2019-01-30T06:59:09.654Z,9.96
2019-01-30T07:00:09.552Z,9.96
2019-01-30T07:02:03.814Z,9.90
2019-01-30T07:03:03.708Z,9.94
2019-01-30T07:04:58.193Z,10.07
2019-01-30T07:05:58.096Z,9.94
2019-01-30T07:07:52.369Z,9.76
2019-01-30T07:08:52.273Z,9.65
2019-01-30T07:10:46.537Z,9.72
2019-01-30T07:11:46.441Z,9.72
2019-01-30T07:13:41.518Z,9.86
2019-01-30T07:14:41.426Z,9.89
2019-01-30T07:16:35.669Z,9.90
2019-01-30T07:17:35.572Z,9.97
2019-01-30T07:19:30.728Z,9.83
2019-01-30T07:20:31.324Z,9.83
2019-01-30T07:22:25.703Z,9.78
2019-01-30T07:23:25.599Z,9.83
2019-01-30T07:25:19.872Z,9.89
2019-01-30T07:26:19.759Z,9.87
2019-01-30T07:28:14.092Z,9.87
2019-01-30T07:29:13.998Z,9.87
2019-01-30T07:31:08.259Z,9.75
2019-01-30T07:32:08.166Z,9.75
2019-01-30T07:34:03.271Z,9.87
2019-01-30T07:35:03.172Z,9.96
2019-01-30T07:37:00.937Z,9.94
2019-01-30T07:38:00.866Z,10.12
2019-01-30T07:39:00.791Z,10.12
2019-01-30T07:40:00.729Z,10.18
2019-01-30T07:41:00.641Z,10.15
2019-01-30T07:42:00.559Z,10.20
2019-01-30T07:43:00.493Z,10.22
2019-01-30T07:44:00.409Z,10.23
2019-01-30T07:45:00.384Z,10.36
2019-01-30T07:46:00.291Z,10.30
2019-01-30T07:47:00.206Z,10.41
2019-01-30T07:48:00.146Z,10.41
2019-01-30T07:49:00.051Z,10.40
2019-01-30T07:49:59.971Z,10.36
2019-01-30T07:50:59.896Z,10.36
2019-01-30T07:51:59.834Z,10.36
2019-01-30T07:52:59.767Z,10.42
2019-01-30T07:53:59.680Z,10.41
2019-01-30T07:54:59.604Z,10.52
2019-01-30T07:55:59.531Z,10.44
2019-01-30T07:56:59.461Z,10.60
2019-01-30T07:57:59.398Z,10.53
2019-01-30T07:58:59.323Z,10.52
2019-01-30T07:59:59.243Z,10.56
2019-01-30T08:00:59.194Z,10.47
2019-01-30T08:01:59.104Z,10.53
2019-01-30T08:02:59.035Z,10.55
2019-01-30T08:03:58.959Z,10.51
2019-01-30T08:04:58.882Z,10.45
2019-01-30T08:05:58.809Z,10.41
2019-01-30T08:06:58.726Z,10.36
2019-01-30T08:07:58.665Z,10.36
2019-01-30T08:08:58.588Z,10.42
2019-01-30T08:09:58.509Z,10.44
2019-01-30T08:10:58.436Z,10.48
2019-01-30T08:11:58.365Z,10.52
2019-01-30T08:12:58.292Z,10.61
2019-01-30T08:13:58.230Z,10.68
2019-01-30T08:14:58.153Z,10.70
2019-01-30T08:15:58.084Z,10.78
2019-01-30T08:16:58.009Z,10.76
2019-01-30T08:17:57.926Z,10.70
2019-01-30T08:18:58.428Z,10.84
2019-01-30T08:19:57.786Z,10.82
2019-01-30T08:20:57.709Z,10.84
2019-01-30T08:21:57.649Z,10.86
2019-01-30T08:22:57.624Z,10.82
2019-01-30T08:23:57.622Z,10.88
2019-01-30T08:24:57.601Z,10.91
2019-01-30T08:25:57.359Z,10.99
2019-01-30T08:26:57.682Z,11.10
2019-01-30T08:27:57.457Z,11.15
2019-01-30T08:28:57.319Z,11.17
2019-01-30T08:29:57.424Z,11.09
2019-01-30T08:30:56.992Z,10.99
2019-01-30T08:31:57.105Z,10.78
2019-01-30T08:33:04.094Z,10.84
2019-01-30T08:33:56.780Z,10.91
2019-01-30T08:34:56.801Z,10.86
2019-01-30T08:35:56.634Z,10.81
2019-01-30T08:36:56.563Z,10.73
2019-01-30T08:37:56.475Z,10.73
2019-01-30T08:38:56.405Z,10.70
2019-01-30T08:39:56.345Z,10.85
2019-01-30T08:40:56.275Z,10.79
2019-01-30T08:41:56.194Z,10.88
2019-01-30T08:42:56.118Z,10.92
2019-01-30T08:43:57.972Z,11.07
2019-01-30T08:44:55.990Z,11.22
2019-01-30T08:45:55.915Z,11.33
2019-01-30T08:46:55.857Z,11.49
2019-01-30T08:47:55.780Z,11.54
2019-01-30T08:48:55.702Z,11.55
2019-01-30T08:49:55.614Z,11.61
2019-01-30T08:50:55.540Z,11.72
2019-01-30T08:51:55.467Z,11.72
2019-01-30T08:52:55.403Z,11.70
2019-01-30T08:53:55.339Z,11.80
2019-01-30T08:54:55.265Z,11.83
2019-01-30T08:55:55.182Z,11.90
2019-01-30T08:56:55.122Z,11.85
2019-01-30T08:57:55.050Z,11.95
2019-01-30T08:58:54.982Z,11.88
2019-01-30T08:59:54.907Z,11.94
2019-01-30T09:00:54.854Z,12.05
2019-01-30T09:01:54.756Z,12.04
2019-01-30T09:02:54.692Z,12.02
2019-01-30T09:03:54.625Z,12.10
2019-01-30T09:04:54.560Z,12.10
2019-01-30T09:05:54.475Z,12.07
2019-01-30T09:06:54.402Z,12.05
2019-01-30T09:07:54.331Z,12.09
2019-01-30T09:08:54.306Z,12.05
2019-01-30T09:09:54.205Z,12.10
2019-01-30T09:10:54.133Z,12.09
2019-01-30T09:11:54.049Z,12.05
2019-01-30T09:12:53.979Z,12.12
2019-01-30T09:13:53.916Z,12.12
2019-01-30T09:14:53.850Z,12.17
2019-01-30T09:15:53.780Z,12.13
2019-01-30T09:16:53.709Z,12.09
2019-01-30T09:17:53.625Z,12.05
2019-01-30T09:18:53.555Z,12.10
2019-01-30T09:19:53.492Z,12.04
2019-01-30T09:20:53.413Z,11.96
2019-01-30T09:21:53.361Z,11.96
2019-01-30T09:22:53.279Z,11.78
2019-01-30T09:23:53.209Z,11.65
2019-01-30T09:24:53.163Z,11.60
2019-01-30T09:25:53.062Z,11.51
2019-01-30T09:26:52.986Z,11.57
2019-01-30T09:27:52.929Z,11.65
2019-01-30T09:28:52.861Z,11.58
2019-01-30T09:29:52.772Z,11.67
2019-01-30T09:30:52.705Z,11.72
2019-01-30T09:31:52.636Z,11.60
2019-01-30T09:32:55.202Z,11.52
2019-01-30T09:33:52.535Z,11.57
2019-01-30T09:34:52.539Z,11.60
2019-01-30T09:35:52.371Z,11.62
2019-01-30T09:36:52.337Z,11.42
2019-01-30T09:37:52.223Z,11.39
2019-01-30T09:38:52.153Z,11.35
2019-01-30T09:39:52.081Z,11.44
2019-01-30T09:40:52.017Z,11.62
2019-01-30T09:41:51.926Z,11.60
2019-01-30T09:42:51.850Z,11.57
2019-01-30T09:43:51.796Z,11.40
2019-01-30T09:44:51.729Z,11.43
2019-01-30T09:45:51.659Z,11.24
2019-01-30T09:46:51.581Z,11.27
2019-01-30T09:47:51.500Z,11.10
2019-01-30T09:48:51.437Z,11.07
2019-01-30T09:49:51.373Z,10.97
2019-01-30T09:50:51.297Z,10.82
2019-01-30T09:51:51.222Z,10.82
2019-01-30T09:52:51.163Z,10.89
2019-01-30T09:53:51.090Z,11.06
2019-01-30T09:54:50.998Z,11.21
2019-01-30T09:55:50.928Z,11.19
2019-01-30T09:56:50.850Z,11.27
2019-01-30T09:57:50.828Z,11.46
2019-01-30T09:58:50.729Z,11.47
2019-01-30T09:59:50.637Z,11.61
2019-01-30T10:00:50.569Z,11.25
2019-01-30T10:01:50.513Z,11.24
2019-01-30T10:02:50.442Z,11.17
2019-01-30T10:03:50.371Z,11.11
2019-01-30T10:04:50.315Z,11.11
2019-01-30T10:05:50.209Z,10.97
2019-01-30T10:06:50.139Z,11.10
2019-01-30T10:07:50.083Z,11.14
2019-01-30T10:08:50.011Z,10.96
2019-01-30T10:09:49.929Z,11.03
2019-01-30T10:10:49.864Z,11.18
2019-01-30T10:11:49.782Z,11.09
2019-01-30T10:12:49.716Z,11.35
2019-01-30T10:13:49.659Z,11.44
2019-01-30T10:14:49.582Z,11.57
2019-01-30T10:15:49.498Z,11.65
2019-01-30T10:16:49.498Z,11.76
2019-01-30T10:17:49.375Z,11.69
2019-01-30T10:18:49.297Z,11.85
2019-01-30T10:19:49.225Z,11.90
2019-01-30T10:20:49.159Z,12.04
2019-01-30T10:21:49.077Z,12.13
2019-01-30T10:22:49.001Z,12.13
2019-01-30T10:23:48.935Z,11.91
2019-01-30T10:24:50.537Z,11.85
2019-01-30T10:25:48.808Z,11.60
2019-01-30T10:26:48.730Z,11.57
2019-01-30T10:27:48.663Z,11.40
2019-01-30T10:28:48.590Z,11.35
2019-01-30T10:29:48.507Z,11.42
2019-01-30T10:30:48.439Z,11.44
2019-01-30T10:31:48.378Z,11.54
2019-01-30T10:32:48.312Z,11.60
2019-01-30T10:33:48.227Z,11.61
2019-01-30T10:34:48.159Z,11.64
2019-01-30T10:35:48.088Z,11.88
2019-01-30T10:36:48.029Z,11.96
2019-01-30T10:37:47.954Z,11.90
2019-01-30T10:38:47.881Z,11.95
2019-01-30T10:39:47.814Z,12.10
2019-01-30T10:40:47.747Z,12.23
2019-01-30T10:41:47.663Z,12.38
2019-01-30T10:42:47.591Z,12.47
2019-01-30T10:43:47.523Z,12.59
2019-01-30T10:44:47.489Z,12.56
2019-01-30T10:45:47.401Z,12.54
2019-01-30T10:46:47.330Z,12.32
2019-01-30T10:47:47.245Z,12.14
2019-01-30T10:48:47.168Z,12.13
2019-01-30T10:49:47.116Z,12.24
2019-01-30T10:50:47.053Z,12.27
2019-01-30T10:51:46.970Z,12.34
2019-01-30T10:52:46.901Z,12.39
2019-01-30T10:53:48.250Z,12.37
2019-01-30T10:54:46.759Z,12.49
2019-01-30T10:55:46.680Z,12.37
2019-01-30T10:56:46.613Z,12.32
2019-01-30T10:57:46.573Z,12.27
2019-01-30T10:58:46.483Z,12.32
2019-01-30T10:59:46.411Z,12.37
2019-01-30T11:00:46.346Z,12.41
2019-01-30T11:01:46.263Z,12.50
2019-01-30T11:02:46.530Z,12.57
2019-01-30T11:03:56.751Z,12.39
2019-01-30T11:04:46.063Z,12.46
2019-01-30T11:05:45.991Z,12.41
2019-01-30T11:06:45.921Z,12.37
2019-01-30T11:07:45.840Z,12.53
2019-01-30T11:08:45.773Z,12.65
2019-01-30T11:09:45.715Z,12.75
2019-01-30T11:10:45.651Z,12.82
2019-01-30T11:11:45.555Z,12.72
2019-01-30T11:12:45.489Z,12.64
2019-01-30T11:13:45.431Z,12.59
2019-01-30T11:14:45.360Z,12.39
2019-01-30T11:15:45.290Z,12.46
2019-01-30T11:16:45.219Z,12.49
2019-01-30T11:17:45.137Z,12.57
2019-01-30T11:18:45.065Z,12.56
2019-01-30T11:19:45.503Z,12.37
2019-01-30T11:20:44.945Z,12.45
2019-01-30T11:21:44.853Z,12.37
2019-01-30T11:22:44.785Z,12.53
2019-01-30T11:23:44.720Z,12.54
2019-01-30T11:24:44.648Z,12.65
2019-01-30T11:25:44.585Z,12.74
2019-01-30T11:26:44.522Z,12.77
2019-01-30T11:27:44.446Z,12.78
2019-01-30T11:28:44.381Z,12.89
2019-01-30T11:29:44.300Z,12.86
2019-01-30T11:30:44.226Z,12.89
2019-01-30T11:31:44.155Z,12.87
2019-01-30T11:32:44.085Z,12.70
2019-01-30T11:33:44.027Z,12.83
2019-01-30T11:34:43.959Z,12.79
2019-01-30T11:35:43.875Z,12.79
2019-01-30T11:36:43.821Z,12.92
2019-01-30T11:37:43.746Z,12.96
2019-01-30T11:38:43.679Z,12.93
2019-01-30T11:39:43.608Z,12.86
2019-01-30T11:40:43.537Z,12.89
2019-01-30T11:41:43.451Z,12.93
2019-01-30T11:42:43.387Z,12.79
2019-01-30T11:43:43.331Z,12.78
2019-01-30T11:44:43.245Z,12.67
2019-01-30T11:45:43.187Z,12.37
2019-01-30T11:46:43.122Z,12.19
2019-01-30T11:47:43.048Z,12.29
2019-01-30T11:48:42.973Z,12.10
2019-01-30T11:49:42.891Z,12.14
2019-01-30T11:50:42.827Z,12.16
2019-01-30T11:51:42.764Z,12.19
2019-01-30T11:52:42.723Z,12.28
2019-01-30T11:53:42.614Z,12.27
2019-01-30T11:54:42.543Z,12.21
2019-01-30T11:55:42.467Z,12.23
2019-01-30T11:56:42.415Z,12.35
2019-01-30T11:57:42.344Z,12.38
2019-01-30T11:58:42.270Z,12.46
2019-01-30T11:59:42.204Z,12.31
2019-01-30T12:00:42.130Z,12.37
2019-01-30T12:01:42.050Z,12.38
2019-01-30T12:02:47.865Z,12.41
2019-01-30T12:03:41.909Z,12.49
2019-01-30T12:04:41.838Z,12.52
2019-01-30T12:05:41.787Z,12.52
2019-01-30T12:06:41.707Z,12.68
2019-01-30T12:07:41.623Z,12.78
2019-01-30T12:08:41.579Z,12.82
2019-01-30T12:09:41.495Z,12.87
2019-01-30T12:10:41.427Z,12.93
2019-01-30T12:11:41.355Z,12.86
2019-01-30T12:12:41.285Z,12.52
2019-01-30T12:13:41.203Z,12.39
2019-01-30T12:14:41.137Z,12.35
2019-01-30T12:15:41.075Z,12.34
2019-01-30T12:16:41.009Z,12.32
2019-01-30T12:17:40.918Z,12.29
2019-01-30T12:18:40.848Z,12.24
2019-01-30T12:19:40.780Z,12.21
2019-01-30T12:20:40.712Z,12.35
2019-01-30T12:21:40.651Z,12.31
2019-01-30T12:22:40.582Z,12.29
2019-01-30T12:23:40.495Z,12.34
2019-01-30T12:24:40.427Z,12.27
2019-01-30T12:25:40.370Z,12.37
2019-01-30T12:26:40.300Z,12.21
2019-01-30T12:27:40.273Z,12.16
2019-01-30T12:28:40.160Z,12.16
2019-01-30T12:29:40.073Z,12.17
2019-01-30T12:30:40.006Z,12.24
2019-01-30T12:31:39.937Z,12.20
2019-01-30T12:32:39.863Z,12.31
2019-01-30T12:33:39.802Z,12.45
2019-01-30T12:34:39.734Z,12.64
2019-01-30T12:35:39.654Z,12.67
2019-01-30T12:36:39.598Z,12.75
2019-01-30T12:37:39.508Z,12.79
2019-01-30T12:38:39.437Z,12.89
2019-01-30T12:39:39.453Z,12.90
2019-01-30T12:40:39.307Z,12.71
2019-01-30T12:41:39.224Z,12.67
2019-01-30T12:42:39.185Z,12.65
2019-01-30T12:43:39.095Z,12.74
2019-01-30T12:44:39.016Z,12.82
2019-01-30T12:45:39.044Z,12.86
2019-01-30T12:46:38.883Z,12.93
2019-01-30T12:47:38.813Z,12.97
2019-01-30T12:48:38.742Z,13.07
2019-01-30T12:49:38.662Z,12.97
2019-01-30T12:50:38.593Z,12.93
2019-01-30T12:51:38.525Z,13.10
2019-01-30T12:52:38.468Z,13.08
2019-01-30T12:53:38.392Z,13.11
2019-01-30T12:54:38.325Z,13.26
2019-01-30T12:55:38.238Z,13.15
2019-01-30T12:56:38.169Z,13.08
2019-01-30T12:57:38.108Z,13.25
2019-01-30T12:58:38.043Z,13.19
2019-01-30T12:59:37.987Z,13.25
2019-01-30T13:00:37.896Z,13.23
2019-01-30T13:01:37.817Z,13.26
2019-01-30T13:02:37.745Z,13.29
2019-01-30T13:03:37.675Z,13.26
2019-01-30T13:04:38.812Z,13.22
2019-01-30T13:05:37.557Z,13.25
2019-01-30T13:06:37.482Z,13.23
2019-01-30T13:07:37.406Z,13.12
2019-01-30T13:08:37.337Z,12.90
2019-01-30T13:09:37.257Z,12.86
2019-01-30T13:10:37.186Z,12.77
2019-01-30T13:11:37.126Z,12.62
2019-01-30T13:12:37.060Z,12.54
2019-01-30T13:13:36.974Z,12.49
2019-01-30T13:14:36.903Z,12.54
2019-01-30T13:15:36.831Z,12.64
2019-01-30T13:16:36.761Z,12.62
2019-01-30T13:17:36.704Z,12.71
2019-01-30T13:18:36.636Z,12.82
2019-01-30T13:19:36.551Z,12.86
2019-01-30T13:20:36.483Z,12.83
2019-01-30T13:21:36.417Z,12.78
2019-01-30T13:22:36.375Z,12.62
2019-01-30T13:23:36.276Z,12.49
2019-01-30T13:24:38.460Z,12.45
2019-01-30T13:25:36.129Z,12.47
2019-01-30T13:26:36.060Z,12.56
2019-01-30T13:27:35.998Z,12.50
2019-01-30T13:28:35.929Z,12.49
2019-01-30T13:29:35.844Z,12.59
2019-01-30T13:30:35.773Z,12.62
2019-01-30T13:31:35.701Z,12.50
2019-01-30T13:32:35.632Z,12.64
2019-01-30T13:33:35.574Z,12.65
2019-01-30T13:34:35.515Z,12.57
2019-01-30T13:35:35.429Z,12.52
2019-01-30T13:36:35.365Z,12.54
2019-01-30T13:37:35.277Z,12.59
2019-01-30T13:38:35.203Z,12.52
2019-01-30T13:39:35.133Z,12.52
2019-01-30T13:40:35.064Z,12.53
2019-01-30T13:41:34.999Z,12.56
2019-01-30T13:42:34.932Z,12.52
2019-01-30T13:43:34.849Z,12.59
2019-01-30T13:44:34.776Z,12.65
2019-01-30T13:45:34.716Z,12.62
2019-01-30T13:46:34.648Z,12.64
2019-01-30T13:47:34.579Z,12.78
2019-01-30T13:48:34.532Z,12.75
2019-01-30T13:49:34.421Z,12.85
2019-01-30T13:50:34.356Z,12.86
2019-01-30T13:51:34.299Z,13.00
2019-01-30T13:52:34.223Z,13.01
2019-01-30T13:53:34.136Z,13.10
2019-01-30T13:54:34.074Z,13.11
2019-01-30T13:55:34.018Z,12.96
2019-01-30T13:56:33.930Z,12.96
2019-01-30T13:57:33.872Z,12.95
2019-01-30T13:58:33.794Z,12.89
2019-01-30T13:59:33.714Z,12.85
2019-01-30T14:00:33.642Z,12.64
2019-01-30T14:01:33.590Z,12.54
2019-01-30T14:02:33.536Z,12.46
2019-01-30T14:03:33.457Z,12.50
2019-01-30T14:04:33.373Z,12.57
2019-01-30T14:05:33.351Z,12.59
2019-01-30T14:06:33.217Z,12.41
2019-01-30T14:07:33.143Z,12.41
2019-01-30T14:08:33.075Z,12.38
2019-01-30T14:09:33.013Z,12.38
2019-01-30T14:10:32.946Z,12.49
2019-01-30T14:11:32.868Z,12.56
2019-01-30T14:12:32.821Z,12.56
2019-01-30T14:13:32.746Z,12.64
2019-01-30T14:14:32.653Z,12.77
2019-01-30T14:15:32.594Z,12.90
2019-01-30T14:16:32.515Z,12.87
2019-01-30T14:17:32.520Z,12.90
2019-01-30T14:18:32.367Z,12.93
2019-01-30T14:19:32.289Z,12.89
2019-01-30T14:20:32.234Z,12.71
2019-01-30T14:21:32.191Z,12.71
2019-01-30T14:22:32.090Z,12.83
2019-01-30T14:23:32.024Z,12.89
2019-01-30T14:24:31.936Z,12.89
2019-01-30T14:25:31.897Z,12.90
2019-01-30T14:26:31.810Z,12.87
2019-01-30T14:27:31.734Z,12.75
2019-01-30T14:28:31.681Z,12.86
2019-01-30T14:29:31.583Z,12.89
2019-01-30T14:30:31.511Z,12.86
2019-01-30T14:31:31.455Z,12.86
2019-01-30T14:32:31.378Z,12.92
2019-01-30T14:33:31.299Z,12.79
2019-01-30T14:34:31.268Z,12.78
2019-01-30T14:35:31.165Z,12.89
2019-01-30T14:36:31.087Z,12.85
2019-01-30T14:37:31.032Z,12.96
2019-01-30T14:38:30.952Z,12.86
2019-01-30T14:39:30.911Z,12.97
2019-01-30T14:40:30.821Z,12.89
2019-01-30T14:41:30.748Z,12.89
2019-01-30T14:42:30.678Z,12.90
2019-01-30T14:43:30.632Z,12.90
2019-01-30T14:44:30.545Z,13.00
2019-01-30T14:45:30.458Z,13.04
2019-01-30T14:46:30.387Z,13.00
2019-01-30T14:47:30.305Z,13.12
2019-01-30T14:48:30.235Z,13.10
2019-01-30T14:49:30.180Z,13.03
2019-01-30T14:50:30.153Z,12.92
2019-01-30T14:51:30.039Z,12.85
2019-01-30T14:52:29.967Z,12.79
2019-01-30T14:53:29.878Z,12.79
2019-01-30T14:54:29.846Z,12.78
2019-01-30T14:55:29.777Z,12.87
2019-01-30T14:56:29.691Z,12.86
2019-01-30T14:57:29.628Z,12.96
2019-01-30T14:58:29.686Z,12.93
2019-01-30T14:59:29.462Z,13.08
2019-01-30T15:00:29.410Z,13.11
2019-01-30T15:01:29.316Z,13.23
2019-01-30T15:02:29.299Z,13.23
2019-01-30T15:03:29.187Z,13.20
2019-01-30T15:04:29.151Z,13.07
2019-01-30T15:05:29.046Z,13.20
2019-01-30T15:06:28.987Z,13.10
2019-01-30T15:07:29.415Z,13.01
2019-01-30T15:08:28.820Z,13.01
2019-01-30T15:09:28.797Z,13.10
2019-01-30T15:10:28.699Z,13.14
2019-01-30T15:11:28.622Z,13.10
2019-01-30T15:12:28.555Z,13.15
2019-01-30T15:13:28.519Z,13.19
2019-01-30T15:14:28.415Z,13.17
2019-01-30T15:15:28.367Z,13.20
2019-01-30T15:16:28.258Z,13.23
2019-01-30T15:17:28.200Z,13.28
2019-01-30T15:18:28.133Z,13.38
2019-01-30T15:19:28.045Z,13.39